CheckWX is a tool to help pilots better visualize weather data.  It is not intended as a substitute for an official pre-flight weather briefing.

15:52:13 UTC

EFOU METAR
Oulu Airport
Oulu / Oulunsalo, Finland
Current

32 mins ago

EFOU 211520Z AUTO 16004KT 1700 BCFG VV002 02/02 Q1032
Observed
Nov-21 @ 15:20 UTC
Wind
  • 160° at 4 KTS
Visibility
1,700 meters
Flight Rules
LIFR
Conditions
Patches of Fog
Cloud Levels
  • Vertical visibility at 200' AGL
Temperature
C / 36°F
Dewpoint
C / 36°F
Humidity
100%
Altimeter
30.47" Hg
Pressure
1031.92 hPa
Previous

1 hour ago

EFOU 211450Z AUTO 16003KT 1100 R12/1900U BCFG VV002 02/02 Q1032
Observed
Nov-21 @ 14:50 UTC
Wind
  • 160° at 3 KTS
Visibility
1,100 meters
Flight Rules
LIFR
Conditions
Patches of Fog
Cloud Levels
  • Vertical visibility at 200' AGL
Temperature
C / 36°F
Dewpoint
C / 36°F
Humidity
100%
Altimeter
30.47" Hg
Pressure
1031.92 hPa
Previous

2 hours ago

EFOU 211420Z AUTO 14004KT 0750 R12/1400U FG VV002 02/02 Q1032
Observed
Nov-21 @ 14:20 UTC
Wind
  • 140° at 4 KTS
Visibility
800 meters
Flight Rules
LIFR
Conditions
Fog
Cloud Levels
  • Vertical visibility at 200' AGL
Temperature
C / 36°F
Dewpoint
C / 36°F
Humidity
100%
Altimeter
30.47" Hg
Pressure
1031.92 hPa